sensor_id;sensor_type;location;lat;lon;timestamp;pressure;altitude;pressure_sealevel;temperature;humidity
42727;BME280;28372;56.832;60.658;2022-07-29T00:00:31;97903.25;;;19.65;62.21
42727;BME280;28372;56.832;60.658;2022-07-29T00:02:58;97904.88;;;19.63;62.29
42727;BME280;28372;56.832;60.658;2022-07-29T00:05:26;97908.81;;;19.62;62.34
42727;BME280;28372;56.832;60.658;2022-07-29T00:07:53;97916.16;;;19.65;62.31
42727;BME280;28372;56.832;60.658;2022-07-29T00:10:21;97921.75;;;19.61;62.43
42727;BME280;28372;56.832;60.658;2022-07-29T00:12:49;97919.28;;;19.67;62.22
42727;BME280;28372;56.832;60.658;2022-07-29T00:15:16;97920.13;;;19.64;62.23
42727;BME280;28372;56.832;60.658;2022-07-29T00:17:44;97915.75;;;19.66;62.27
42727;BME280;28372;56.832;60.658;2022-07-29T00:20:11;97915.22;;;19.72;61.95
42727;BME280;28372;56.832;60.658;2022-07-29T00:22:39;97923.47;;;19.72;61.83
42727;BME280;28372;56.832;60.658;2022-07-29T00:25:07;97923.38;;;19.75;61.73
42727;BME280;28372;56.832;60.658;2022-07-29T00:27:36;97931.69;;;19.72;61.91
42727;BME280;28372;56.832;60.658;2022-07-29T00:30:05;97927.66;;;19.76;62.09
42727;BME280;28372;56.832;60.658;2022-07-29T00:32:33;97936.69;;;19.77;61.48
42727;BME280;28372;56.832;60.658;2022-07-29T00:35:01;97934.69;;;19.77;60.99
42727;BME280;28372;56.832;60.658;2022-07-29T00:37:47;97923.47;;;19.72;61.28
42727;BME280;28372;56.832;60.658;2022-07-29T00:40:14;97927.94;;;19.82;61.24
42727;BME280;28372;56.832;60.658;2022-07-29T00:42:46;97935.59;;;19.91;62.54
42727;BME280;28372;56.832;60.658;2022-07-29T00:45:14;97935.75;;;19.83;60.75
42727;BME280;28372;56.832;60.658;2022-07-29T00:47:43;97935.47;;;19.78;61.15
42727;BME280;28372;56.832;60.658;2022-07-29T00:50:12;97939.28;;;19.84;61.79
42727;BME280;28372;56.832;60.658;2022-07-29T00:52:41;97943.31;;;19.79;61.45
42727;BME280;28372;56.832;60.658;2022-07-29T00:55:12;97939.97;;;19.88;62.21
42727;BME280;28372;56.832;60.658;2022-07-29T00:57:41;97936.59;;;19.97;61.00
42727;BME280;28372;56.832;60.658;2022-07-29T01:00:15;97942.44;;;19.99;60.84
42727;BME280;28372;56.832;60.658;2022-07-29T01:02:45;97930.59;;;20.02;60.42
42727;BME280;28372;56.832;60.658;2022-07-29T01:05:18;97931.50;;;20.12;61.50
42727;BME280;28372;56.832;60.658;2022-07-29T01:07:47;97929.47;;;19.99;60.18
42727;BME280;28372;56.832;60.658;2022-07-29T01:10:16;97942.94;;;20.10;59.53
42727;BME280;28372;56.832;60.658;2022-07-29T01:12:45;97940.31;;;20.19;59.67
42727;BME280;28372;56.832;60.658;2022-07-29T01:15:13;97937.81;;;20.25;58.91
42727;BME280;28372;56.832;60.658;2022-07-29T01:17:45;97946.09;;;20.38;59.53
42727;BME280;28372;56.832;60.658;2022-07-29T01:20:27;97942.59;;;20.37;58.29
42727;BME280;28372;56.832;60.658;2022-07-29T01:23:11;97945.81;;;20.49;58.08
42727;BME280;28372;56.832;60.658;2022-07-29T01:31:25;97953.97;;;20.82;58.17
42727;BME280;28372;56.832;60.658;2022-07-29T01:33:59;97950.78;;;20.83;57.36
42727;BME280;28372;56.832;60.658;2022-07-29T01:36:36;97953.34;;;20.91;57.71
42727;BME280;28372;56.832;60.658;2022-07-29T01:39:08;97944.72;;;20.88;56.29
42727;BME280;28372;56.832;60.658;2022-07-29T01:41:42;97952.81;;;20.96;57.24
42727;BME280;28372;56.832;60.658;2022-07-29T01:44:20;97951.34;;;21.04;55.78
42727;BME280;28372;56.832;60.658;2022-07-29T01:46:53;97945.31;;;21.09;55.77
42727;BME280;28372;56.832;60.658;2022-07-29T01:49:31;97946.56;;;21.21;56.52
42727;BME280;28372;56.832;60.658;2022-07-29T01:52:18;97950.19;;;21.31;56.36
42727;BME280;28372;56.832;60.658;2022-07-29T01:54:54;97943.81;;;21.34;55.36
42727;BME280;28372;56.832;60.658;2022-07-29T01:57:27;97949.75;;;21.45;55.08
42727;BME280;28372;56.832;60.658;2022-07-29T01:59:58;97956.34;;;21.48;54.15
42727;BME280;28372;56.832;60.658;2022-07-29T02:02:40;97956.91;;;21.55;53.42
42727;BME280;28372;56.832;60.658;2022-07-29T02:05:11;97955.91;;;21.62;53.23
42727;BME280;28372;56.832;60.658;2022-07-29T02:07:40;97949.53;;;21.65;52.48
42727;BME280;28372;56.832;60.658;2022-07-29T02:10:10;97956.78;;;21.72;52.36
42727;BME280;28372;56.832;60.658;2022-07-29T02:12:40;97960.28;;;21.85;52.13
42727;BME280;28372;56.832;60.658;2022-07-29T02:15:37;97951.22;;;21.98;51.18
42727;BME280;28372;56.832;60.658;2022-07-29T02:18:09;97945.41;;;21.96;51.83
42727;BME280;28372;56.832;60.658;2022-07-29T02:20:39;97940.75;;;22.05;51.02
42727;BME280;28372;56.832;60.658;2022-07-29T02:23:10;97943.13;;;22.16;50.72
42727;BME280;28372;56.832;60.658;2022-07-29T02:25:40;97934.88;;;22.16;50.50
42727;BME280;28372;56.832;60.658;2022-07-29T02:28:08;97941.78;;;22.21;50.12
42727;BME280;28372;56.832;60.658;2022-07-29T02:30:39;97935.06;;;22.35;50.85
42727;BME280;28372;56.832;60.658;2022-07-29T02:33:10;97933.25;;;22.41;50.05
42727;BME280;28372;56.832;60.658;2022-07-29T02:35:40;97933.63;;;22.52;49.77
42727;BME280;28372;56.832;60.658;2022-07-29T02:38:13;97930.03;;;22.65;49.67
42727;BME280;28372;56.832;60.658;2022-07-29T02:41:05;97926.63;;;22.83;48.92
42727;BME280;28372;56.832;60.658;2022-07-29T02:43:34;97929.56;;;22.88;48.12
42727;BME280;28372;56.832;60.658;2022-07-29T02:46:05;97924.28;;;23.03;47.95
42727;BME280;28372;56.832;60.658;2022-07-29T02:49:07;97926.91;;;23.38;46.95
42727;BME280;28372;56.832;60.658;2022-07-29T02:51:53;97922.66;;;23.56;46.48
42727;BME280;28372;56.832;60.658;2022-07-29T02:57:08;97922.25;;;23.85;45.69
42727;BME280;28372;56.832;60.658;2022-07-29T02:59:40;97911.84;;;24.36;43.86
42727;BME280;28372;56.832;60.658;2022-07-29T03:02:09;97914.41;;;25.38;42.60
42727;BME280;28372;56.832;60.658;2022-07-29T03:04:40;97909.47;;;26.29;40.16
42727;BME280;28372;56.832;60.658;2022-07-29T03:07:09;97905.00;;;27.22;39.00
42727;BME280;28372;56.832;60.658;2022-07-29T03:09:38;97902.03;;;28.02;37.45
42727;BME280;28372;56.832;60.658;2022-07-29T03:12:08;97894.19;;;28.74;36.20
42727;BME280;28372;56.832;60.658;2022-07-29T03:14:38;97908.97;;;29.61;34.43
42727;BME280;28372;56.832;60.658;2022-07-29T03:17:06;97906.47;;;30.23;33.25
42727;BME280;28372;56.832;60.658;2022-07-29T03:19:34;97908.84;;;30.92;31.95
42727;BME280;28372;56.832;60.658;2022-07-29T03:22:02;97891.75;;;31.47;30.76
42727;BME280;28372;56.832;60.658;2022-07-29T03:24:33;97896.13;;;32.13;29.93
42727;BME280;28372;56.832;60.658;2022-07-29T03:27:02;97900.59;;;32.74;28.60
42727;BME280;28372;56.832;60.658;2022-07-29T03:29:30;97895.81;;;33.24;28.03
42727;BME280;28372;56.832;60.658;2022-07-29T03:32:04;97897.41;;;33.44;27.32
42727;BME280;28372;56.832;60.658;2022-07-29T03:34:36;97901.47;;;34.31;26.57
42727;BME280;28372;56.832;60.658;2022-07-29T03:37:05;97894.03;;;34.34;25.62
42727;BME280;28372;56.832;60.658;2022-07-29T03:39:38;97901.63;;;34.90;24.71
42727;BME280;28372;56.832;60.658;2022-07-29T03:42:08;97893.59;;;35.54;24.06
42727;BME280;28372;56.832;60.658;2022-07-29T03:44:38;97890.53;;;35.78;23.78
42727;BME280;28372;56.832;60.658;2022-07-29T03:47:09;97886.16;;;36.31;23.47
42727;BME280;28372;56.832;60.658;2022-07-29T03:49:39;97881.69;;;36.78;22.69
42727;BME280;28372;56.832;60.658;2022-07-29T03:52:07;97887.75;;;37.03;22.48
42727;BME280;28372;56.832;60.658;2022-07-29T03:54:36;97880.84;;;37.12;22.52
42727;BME280;28372;56.832;60.658;2022-07-29T03:57:05;97888.84;;;37.50;21.59
42727;BME280;28372;56.832;60.658;2022-07-29T03:59:33;97880.78;;;37.91;21.18
42727;BME280;28372;56.832;60.658;2022-07-29T04:02:02;97886.47;;;38.06;21.13
42727;BME280;28372;56.832;60.658;2022-07-29T04:04:33;97890.38;;;38.47;20.41
42727;BME280;28372;56.832;60.658;2022-07-29T04:07:01;97890.63;;;38.80;20.69
42727;BME280;28372;56.832;60.658;2022-07-29T04:09:29;97885.16;;;38.90;19.93
42727;BME280;28372;56.832;60.658;2022-07-29T04:11:57;97888.50;;;39.43;19.47
42727;BME280;28372;56.832;60.658;2022-07-29T04:14:31;97893.38;;;39.57;18.68
42727;BME280;28372;56.832;60.658;2022-07-29T04:17:04;97879.78;;;39.64;18.75
42727;BME280;28372;56.832;60.658;2022-07-29T04:19:32;97873.25;;;39.94;18.61
42727;BME280;28372;56.832;60.658;2022-07-29T04:22:00;97889.56;;;40.19;18.37
42727;BME280;28372;56.832;60.658;2022-07-29T04:24:28;97877.25;;;40.57;17.94
42727;BME280;28372;56.832;60.658;2022-07-29T04:26:55;97870.59;;;40.87;17.48
42727;BME280;28372;56.832;60.658;2022-07-29T04:29:23;97862.47;;;40.33;17.51
42727;BME280;28372;56.832;60.658;2022-07-29T04:31:50;97874.91;;;40.38;17.90
42727;BME280;28372;56.832;60.658;2022-07-29T04:34:18;97866.72;;;40.50;17.60
42727;BME280;28372;56.832;60.658;2022-07-29T04:36:46;97871.66;;;40.74;17.23
42727;BME280;28372;56.832;60.658;2022-07-29T04:39:13;97862.94;;;40.98;17.35
42727;BME280;28372;56.832;60.658;2022-07-29T04:41:48;97857.38;;;41.07;17.21
42727;BME280;28372;56.832;60.658;2022-07-29T04:44:20;97885.44;;;40.45;18.60
42727;BME280;28372;56.832;60.658;2022-07-29T04:46:54;97865.94;;;41.42;16.53
42727;BME280;28372;56.832;60.658;2022-07-29T04:49:22;97855.56;;;41.55;16.32
42727;BME280;28372;56.832;60.658;2022-07-29T04:51:49;97867.94;;;41.67;16.73
42727;BME280;28372;56.832;60.658;2022-07-29T04:54:17;97855.78;;;40.97;16.67
42727;BME280;28372;56.832;60.658;2022-07-29T04:56:45;97851.28;;;40.68;16.47
42727;BME280;28372;56.832;60.658;2022-07-29T04:59:13;97862.94;;;40.98;16.25
42727;BME280;28372;56.832;60.658;2022-07-29T05:01:41;97847.63;;;41.18;16.36
42727;BME280;28372;56.832;60.658;2022-07-29T05:04:08;97844.97;;;41.20;16.41
42727;BME280;28372;56.832;60.658;2022-07-29T05:06:36;97851.63;;;40.72;16.75
42727;BME280;28372;56.832;60.658;2022-07-29T05:09:03;97846.97;;;40.85;16.69
42727;BME280;28372;56.832;60.658;2022-07-29T05:11:31;97848.56;;;40.20;16.57
42727;BME280;28372;56.832;60.658;2022-07-29T05:13:58;97839.06;;;40.58;16.11
42727;BME280;28372;56.832;60.658;2022-07-29T05:16:26;97841.72;;;40.81;16.26
42727;BME280;28372;56.832;60.658;2022-07-29T05:18:53;97841.31;;;41.27;16.56
42727;BME280;28372;56.832;60.658;2022-07-29T05:21:21;97835.19;;;41.66;15.63
42727;BME280;28372;56.832;60.658;2022-07-29T05:23:48;97849.97;;;41.82;16.09
42727;BME280;28372;56.832;60.658;2022-07-29T05:26:16;97832.94;;;42.09;15.37
42727;BME280;28372;56.832;60.658;2022-07-29T05:28:43;97837.28;;;42.10;15.22
42727;BME280;28372;56.832;60.658;2022-07-29T05:31:11;97839.47;;;42.29;14.72
42727;BME280;28372;56.832;60.658;2022-07-29T05:33:38;97832.72;;;42.52;14.97
42727;BME280;28372;56.832;60.658;2022-07-29T05:36:06;97843.13;;;42.87;15.09
42727;BME280;28372;56.832;60.658;2022-07-29T05:38:35;97843.13;;;42.87;14.21
42727;BME280;28372;56.832;60.658;2022-07-29T05:41:04;97831.00;;;42.86;13.90
42727;BME280;28372;56.832;60.658;2022-07-29T05:43:31;97829.38;;;42.83;13.41
42727;BME280;28372;56.832;60.658;2022-07-29T05:45:59;97837.91;;;42.93;13.70
42727;BME280;28372;56.832;60.658;2022-07-29T05:48:27;97843.59;;;42.46;13.51
42727;BME280;28372;56.832;60.658;2022-07-29T05:50:55;97833.31;;;41.96;13.70
42727;BME280;28372;56.832;60.658;2022-07-29T05:53:22;97834.38;;;41.21;14.63
42727;BME280;28372;56.832;60.658;2022-07-29T05:55:50;97834.38;;;41.56;14.45
42727;BME280;28372;56.832;60.658;2022-07-29T05:58:19;97841.28;;;41.80;14.40
42727;BME280;28372;56.832;60.658;2022-07-29T06:00:46;97833.06;;;41.39;14.79
42727;BME280;28372;56.832;60.658;2022-07-29T06:03:14;97831.19;;;41.17;14.86
42727;BME280;28372;56.832;60.658;2022-07-29T06:05:42;97831.75;;;40.55;15.14
42727;BME280;28372;56.832;60.658;2022-07-29T06:08:09;97830.41;;;40.56;15.45
42727;BME280;28372;56.832;60.658;2022-07-29T06:10:37;97828.44;;;40.66;15.56
42727;BME280;28372;56.832;60.658;2022-07-29T06:13:04;97826.94;;;41.25;15.56
42727;BME280;28372;56.832;60.658;2022-07-29T06:15:32;97825.44;;;41.59;15.32
42727;BME280;28372;56.832;60.658;2022-07-29T06:18:00;97822.22;;;41.46;15.31
42727;BME280;28372;56.832;60.658;2022-07-29T06:20:29;97818.22;;;41.93;15.29
42727;BME280;28372;56.832;60.658;2022-07-29T06:22:58;97808.22;;;42.29;15.31
42727;BME280;28372;56.832;60.658;2022-07-29T06:25:26;97812.94;;;42.54;14.63
42727;BME280;28372;56.832;60.658;2022-07-29T06:27:57;97821.47;;;43.01;14.05
42727;BME280;28372;56.832;60.658;2022-07-29T06:30:24;97824.25;;;42.72;14.10
42727;BME280;28372;56.832;60.658;2022-07-29T06:32:52;97825.63;;;42.90;13.98
42727;BME280;28372;56.832;60.658;2022-07-29T06:35:20;97815.03;;;42.54;14.21
42727;BME280;28372;56.832;60.658;2022-07-29T06:38:08;97809.97;;;41.88;14.66
42727;BME280;28372;56.832;60.658;2022-07-29T06:40:55;97818.84;;;42.02;14.84
42727;BME280;28372;56.832;60.658;2022-07-29T06:43:49;97811.38;;;42.34;14.43
42727;BME280;28372;56.832;60.658;2022-07-29T06:46:21;97819.03;;;42.78;14.24
42727;BME280;28372;56.832;60.658;2022-07-29T06:48:50;97825.41;;;43.25;13.91
42727;BME280;28372;56.832;60.658;2022-07-29T06:51:19;97823.44;;;43.28;13.77
42727;BME280;28372;56.832;60.658;2022-07-29T06:53:51;97834.97;;;43.30;13.35
42727;BME280;28372;56.832;60.658;2022-07-29T06:56:34;97817.59;;;43.06;13.24
42727;BME280;28372;56.832;60.658;2022-07-29T06:59:07;97826.13;;;43.36;12.97
42727;BME280;28372;56.832;60.658;2022-07-29T07:01:40;97832.13;;;43.20;13.06
42727;BME280;28372;56.832;60.658;2022-07-29T07:04:09;97828.38;;;43.37;13.02
42727;BME280;28372;56.832;60.658;2022-07-29T07:06:37;97824.22;;;43.48;13.22
42727;BME280;28372;56.832;60.658;2022-07-29T07:09:05;97831.81;;;43.26;12.73
42727;BME280;28372;56.832;60.658;2022-07-29T07:11:33;97824.63;;;43.15;13.40
42727;BME280;28372;56.832;60.658;2022-07-29T07:14:01;97825.09;;;43.31;13.56
42727;BME280;28372;56.832;60.658;2022-07-29T07:16:31;97830.91;;;43.43;13.19
42727;BME280;28372;56.832;60.658;2022-07-29T07:18:59;97825.84;;;43.61;13.30
42727;BME280;28372;56.832;60.658;2022-07-29T07:21:27;97819.56;;;43.53;13.34
42727;BME280;28372;56.832;60.658;2022-07-29T07:23:57;97820.31;;;43.34;13.60
42727;BME280;28372;56.832;60.658;2022-07-29T07:26:25;97818.78;;;42.47;13.79
42727;BME280;28372;56.832;60.658;2022-07-29T07:28:52;97817.41;;;41.66;13.98
42727;BME280;28372;56.832;60.658;2022-07-29T07:31:20;97822.53;;;41.15;14.41
42727;BME280;28372;56.832;60.658;2022-07-29T07:33:48;97825.72;;;40.51;14.36
42727;BME280;28372;56.832;60.658;2022-07-29T07:36:15;97829.88;;;39.84;14.98
42727;BME280;28372;56.832;60.658;2022-07-29T07:38:43;97839.91;;;39.77;15.57
42727;BME280;28372;56.832;60.658;2022-07-29T07:41:10;97829.34;;;39.78;15.62
42727;BME280;28372;56.832;60.658;2022-07-29T07:43:38;97819.34;;;39.77;15.95
42727;BME280;28372;56.832;60.658;2022-07-29T07:46:06;97817.19;;;39.44;16.16
42727;BME280;28372;56.832;60.658;2022-07-29T07:48:33;97819.31;;;39.28;16.30
42727;BME280;28372;56.832;60.658;2022-07-29T07:51:02;97821.81;;;38.47;16.14
42727;BME280;28372;56.832;60.658;2022-07-29T07:53:29;97820.03;;;38.13;16.75
42727;BME280;28372;56.832;60.658;2022-07-29T07:55:58;97815.34;;;38.08;17.01
42727;BME280;28372;56.832;60.658;2022-07-29T07:58:36;97818.31;;;38.02;17.12
42727;BME280;28372;56.832;60.658;2022-07-29T08:01:04;97819.09;;;38.10;17.78
42727;BME280;28372;56.832;60.658;2022-07-29T08:03:32;97825.41;;;37.87;17.55
42727;BME280;28372;56.832;60.658;2022-07-29T08:06:00;97814.50;;;37.84;17.49
42727;BME280;28372;56.832;60.658;2022-07-29T08:08:28;97802.66;;;37.85;17.33
42727;BME280;28372;56.832;60.658;2022-07-29T08:10:56;97819.47;;;37.54;17.87
42727;BME280;28372;56.832;60.658;2022-07-29T08:13:25;97820.25;;;37.63;17.99
42727;BME280;28372;56.832;60.658;2022-07-29T08:15:55;97818.88;;;37.93;17.46
42727;BME280;28372;56.832;60.658;2022-07-29T08:18:40;97821.13;;;37.86;17.57
42727;BME280;28372;56.832;60.658;2022-07-29T08:21:08;97816.06;;;37.56;17.63
42727;BME280;28372;56.832;60.658;2022-07-29T08:23:36;97813.88;;;37.04;17.69
42727;BME280;28372;56.832;60.658;2022-07-29T08:26:15;97813.31;;;36.98;18.14
42727;BME280;28372;56.832;60.658;2022-07-29T08:28:44;97830.50;;;36.87;18.37
42727;BME280;28372;56.832;60.658;2022-07-29T08:31:13;97827.13;;;36.67;18.55
42727;BME280;28372;56.832;60.658;2022-07-29T08:33:41;97820.50;;;36.57;18.15
42727;BME280;28372;56.832;60.658;2022-07-29T08:36:09;97830.16;;;36.48;18.10
42727;BME280;28372;56.832;60.658;2022-07-29T08:38:36;97822.44;;;36.07;18.32
42727;BME280;28372;56.832;60.658;2022-07-29T08:41:04;97815.25;;;35.84;19.03
42727;BME280;28372;56.832;60.658;2022-07-29T08:43:32;97820.31;;;35.73;18.92
42727;BME280;28372;56.832;60.658;2022-07-29T08:46:02;97811.56;;;35.76;18.72
42727;BME280;28372;56.832;60.658;2022-07-29T08:48:30;97821.06;;;35.87;19.08
42727;BME280;28372;56.832;60.658;2022-07-29T08:50:59;97817.59;;;35.32;18.94
42727;BME280;28372;56.832;60.658;2022-07-29T08:53:30;97819.28;;;34.82;19.62
42727;BME280;28372;56.832;60.658;2022-07-29T08:55:58;97824.63;;;34.66;19.82
42727;BME280;28372;56.832;60.658;2022-07-29T08:58:27;97826.84;;;35.00;19.60
42727;BME280;28372;56.832;60.658;2022-07-29T09:01:03;97831.53;;;34.79;19.67
42727;BME280;28372;56.832;60.658;2022-07-29T09:03:35;97832.69;;;34.89;20.13
42727;BME280;28372;56.832;60.658;2022-07-29T09:06:04;97830.06;;;34.91;20.17
42727;BME280;28372;56.832;60.658;2022-07-29T09:08:32;97833.53;;;34.84;20.65
42727;BME280;28372;56.832;60.658;2022-07-29T09:11:01;97833.53;;;34.84;20.62
42727;BME280;28372;56.832;60.658;2022-07-29T09:13:32;97837.31;;;34.87;20.11
42727;BME280;28372;56.832;60.658;2022-07-29T09:15:59;97839.72;;;34.63;20.37
42727;BME280;28372;56.832;60.658;2022-07-29T09:18:39;97841.50;;;34.47;20.64
42727;BME280;28372;56.832;60.658;2022-07-29T09:21:09;97842.78;;;34.46;20.87
42727;BME280;28372;56.832;60.658;2022-07-29T09:24:08;97833.94;;;34.42;21.05
42727;BME280;28372;56.832;60.658;2022-07-29T09:26:40;97826.78;;;34.09;20.95
42727;BME280;28372;56.832;60.658;2022-07-29T09:29:12;97829.16;;;34.70;20.05
42727;BME280;28372;56.832;60.658;2022-07-29T09:31:42;97834.75;;;33.61;21.27
42727;BME280;28372;56.832;60.658;2022-07-29T09:34:11;97834.50;;;32.90;22.34
42727;BME280;28372;56.832;60.658;2022-07-29T09:39:10;97820.31;;;32.52;21.79
42727;BME280;28372;56.832;60.658;2022-07-29T09:41:51;97827.13;;;32.57;22.37
42727;BME280;28372;56.832;60.658;2022-07-29T09:44:23;97822.31;;;32.21;23.08
42727;BME280;28372;56.832;60.658;2022-07-29T09:47:02;97834.53;;;32.54;23.03
42727;BME280;28372;56.832;60.658;2022-07-29T09:49:33;97840.63;;;32.89;22.89
42727;BME280;28372;56.832;60.658;2022-07-29T09:52:09;97844.75;;;32.52;23.79
42727;BME280;28372;56.832;60.658;2022-07-29T09:54:38;97842.16;;;32.18;23.83
42727;BME280;28372;56.832;60.658;2022-07-29T09:57:08;97851.13;;;32.05;24.00
42727;BME280;28372;56.832;60.658;2022-07-29T09:59:56;97851.34;;;32.18;23.89
42727;BME280;28372;56.832;60.658;2022-07-29T10:02:28;97854.78;;;31.88;24.40
42727;BME280;28372;56.832;60.658;2022-07-29T10:04:57;97846.44;;;31.77;24.35
42727;BME280;28372;56.832;60.658;2022-07-29T10:07:24;97842.97;;;31.54;24.69
42727;BME280;28372;56.832;60.658;2022-07-29T10:09:56;97844.69;;;31.74;24.26
42727;BME280;28372;56.832;60.658;2022-07-29T10:12:24;97832.78;;;31.68;24.67
42727;BME280;28372;56.832;60.658;2022-07-29T10:14:52;97848.28;;;31.52;24.35
42727;BME280;28372;56.832;60.658;2022-07-29T10:17:20;97838.94;;;31.38;25.59
42727;BME280;28372;56.832;60.658;2022-07-29T10:19:49;97841.22;;;31.34;25.30
42727;BME280;28372;56.832;60.658;2022-07-29T10:22:16;97838.69;;;31.36;25.32
42727;BME280;28372;56.832;60.658;2022-07-29T10:25:05;97842.72;;;31.46;25.15
42727;BME280;28372;56.832;60.658;2022-07-29T10:27:32;97839.22;;;31.34;25.21
42727;BME280;28372;56.832;60.658;2022-07-29T10:30:05;97850.69;;;30.97;25.61
42727;BME280;28372;56.832;60.658;2022-07-29T10:38:15;97850.97;;;30.76;25.90
42727;BME280;28372;56.832;60.658;2022-07-29T10:43:46;97831.94;;;30.52;25.63
42727;BME280;28372;56.832;60.658;2022-07-29T10:46:18;97829.34;;;30.42;26.35
42727;BME280;28372;56.832;60.658;2022-07-29T10:57:24;97838.97;;;29.42;27.06
42727;BME280;28372;56.832;60.658;2022-07-29T11:02:44;97811.25;;;29.21;27.35
42727;BME280;28372;56.832;60.658;2022-07-29T11:05:18;97830.66;;;29.10;27.57
42727;BME280;28372;56.832;60.658;2022-07-29T11:08:18;97826.63;;;29.60;26.95
42727;BME280;28372;56.832;60.658;2022-07-29T11:13:50;97835.63;;;29.32;27.81
42727;BME280;28372;56.832;60.658;2022-07-29T11:16:20;97828.19;;;29.23;27.88
42727;BME280;28372;56.832;60.658;2022-07-29T11:21:44;97828.84;;;29.44;27.60
42727;BME280;28372;56.832;60.658;2022-07-29T11:27:17;97833.13;;;29.39;28.02
42727;BME280;28372;56.832;60.658;2022-07-29T11:29:57;97819.31;;;29.19;28.27
42727;BME280;28372;56.832;60.658;2022-07-29T11:32:39;97810.22;;;29.18;28.57
42727;BME280;28372;56.832;60.658;2022-07-29T11:35:22;97812.50;;;29.20;28.50
42727;BME280;28372;56.832;60.658;2022-07-29T11:38:25;97818.13;;;29.26;28.18
42727;BME280;28372;56.832;60.658;2022-07-29T11:43:56;97818.50;;;29.07;27.61
42727;BME280;28372;56.832;60.658;2022-07-29T11:49:10;97809.47;;;28.80;28.25
42727;BME280;28372;56.832;60.658;2022-07-29T11:51:41;97806.50;;;28.58;28.73
42727;BME280;28372;56.832;60.658;2022-07-29T11:54:16;97797.22;;;28.66;28.74
42727;BME280;28372;56.832;60.658;2022-07-29T11:57:09;97807.63;;;28.66;28.67
42727;BME280;28372;56.832;60.658;2022-07-29T11:59:42;97815.47;;;28.67;28.87
42727;BME280;28372;56.832;60.658;2022-07-29T12:02:11;97812.41;;;28.65;29.13
42727;BME280;28372;56.832;60.658;2022-07-29T12:04:58;97803.97;;;28.60;29.02
42727;BME280;28372;56.832;60.658;2022-07-29T12:07:38;97813.28;;;28.51;29.19
42727;BME280;28372;56.832;60.658;2022-07-29T12:10:11;97796.41;;;28.28;29.24
42727;BME280;28372;56.832;60.658;2022-07-29T12:12:56;97785.81;;;28.32;29.48
42727;BME280;28372;56.832;60.658;2022-07-29T12:15:24;97791.03;;;28.25;30.02
42727;BME280;28372;56.832;60.658;2022-07-29T12:18:17;97800.94;;;28.26;30.52
42727;BME280;28372;56.832;60.658;2022-07-29T12:20:46;97792.84;;;28.28;30.02
42727;BME280;28372;56.832;60.658;2022-07-29T12:23:14;97801.41;;;28.24;30.50
42727;BME280;28372;56.832;60.658;2022-07-29T12:25:44;97791.25;;;28.15;30.47
42727;BME280;28372;56.832;60.658;2022-07-29T12:28:16;97812.09;;;28.05;30.32
42727;BME280;28372;56.832;60.658;2022-07-29T12:30:53;97810.31;;;28.02;30.46
42727;BME280;28372;56.832;60.658;2022-07-29T12:33:25;97811.06;;;28.02;30.97
42727;BME280;28372;56.832;60.658;2022-07-29T12:35:57;97808.81;;;27.80;31.17
42727;BME280;28372;56.832;60.658;2022-07-29T12:38:34;97803.38;;;27.71;31.02
42727;BME280;28372;56.832;60.658;2022-07-29T12:41:03;97804.13;;;27.72;31.02
42727;BME280;28372;56.832;60.658;2022-07-29T12:43:31;97811.97;;;27.73;31.22
42727;BME280;28372;56.832;60.658;2022-07-29T12:46:14;97808.00;;;28.00;30.36
42727;BME280;28372;56.832;60.658;2022-07-29T12:48:43;97812.41;;;27.66;31.29
42727;BME280;28372;56.832;60.658;2022-07-29T12:51:11;97799.56;;;27.68;31.39
42727;BME280;28372;56.832;60.658;2022-07-29T12:53:41;97792.41;;;27.62;31.58
42727;BME280;28372;56.832;60.658;2022-07-29T12:56:15;97803.44;;;27.77;31.89
42727;BME280;28372;56.832;60.658;2022-07-29T12:59:19;97794.88;;;28.01;31.22
42727;BME280;28372;56.832;60.658;2022-07-29T13:01:49;97788.13;;;27.87;31.43
42727;BME280;28372;56.832;60.658;2022-07-29T13:04:31;97789.84;;;28.05;31.13
42727;BME280;28372;56.832;60.658;2022-07-29T13:07:06;97786.50;;;27.75;31.85
42727;BME280;28372;56.832;60.658;2022-07-29T13:09:41;97788.78;;;27.76;31.68
42727;BME280;28372;56.832;60.658;2022-07-29T13:12:11;97803.38;;;27.71;31.94
42727;BME280;28372;56.832;60.658;2022-07-29T13:14:44;97796.53;;;27.66;31.66
42727;BME280;28372;56.832;60.658;2022-07-29T13:17:14;97782.56;;;27.61;31.29
42727;BME280;28372;56.832;60.658;2022-07-29T13:19:50;97803.38;;;27.71;31.06
42727;BME280;28372;56.832;60.658;2022-07-29T13:22:20;97806.59;;;27.64;31.24
42727;BME280;28372;56.832;60.658;2022-07-29T13:24:55;97795.06;;;27.50;31.24
42727;BME280;28372;56.832;60.658;2022-07-29T13:27:27;97802.69;;;27.76;31.27
42727;BME280;28372;56.832;60.658;2022-07-29T13:29:58;97797.25;;;27.88;31.26
42727;BME280;28372;56.832;60.658;2022-07-29T13:32:32;97799.78;;;27.65;31.02
42727;BME280;28372;56.832;60.658;2022-07-29T13:35:07;97802.25;;;27.83;31.29
42727;BME280;28372;56.832;60.658;2022-07-29T13:37:36;97804.31;;;27.62;31.17
42727;BME280;28372;56.832;60.658;2022-07-29T13:40:07;97807.84;;;27.63;31.51
42727;BME280;28372;56.832;60.658;2022-07-29T13:42:37;97805.84;;;27.43;31.77
42727;BME280;28372;56.832;60.658;2022-07-29T13:45:06;97805.19;;;27.33;32.04
42727;BME280;28372;56.832;60.658;2022-07-29T13:47:34;97794.81;;;27.33;31.95
42727;BME280;28372;56.832;60.658;2022-07-29T13:50:03;97804.41;;;27.32;31.53
42727;BME280;28372;56.832;60.658;2022-07-29T13:52:33;97795.09;;;27.15;31.99
42727;BME280;28372;56.832;60.658;2022-07-29T13:55:02;97809.06;;;27.21;32.23
42727;BME280;28372;56.832;60.658;2022-07-29T13:57:30;97803.91;;;27.13;32.43